sensor_id;sensor_type;location;lat;lon;timestamp;pressure;altitude;pressure_sealevel;temperature;humidity
34328;BME280;20588;48.840;10.064;2023-02-12T00:01:50;98370.88;;;4.27;nan
34328;BME280;20588;48.840;10.064;2023-02-12T00:04:16;98368.34;;;4.27;nan
34328;BME280;20588;48.840;10.064;2023-02-12T00:06:42;98376.22;;;4.24;nan
34328;BME280;20588;48.840;10.064;2023-02-12T00:09:08;98371.97;;;4.25;nan
34328;BME280;20588;48.840;10.064;2023-02-12T00:11:34;98367.09;;;4.22;nan
34328;BME280;20588;48.840;10.064;2023-02-12T00:14:01;98369.78;;;4.20;nan
34328;BME280;20588;48.840;10.064;2023-02-12T00:16:28;98364.94;;;4.17;nan
34328;BME280;20588;48.840;10.064;2023-02-12T00:18:56;98369.22;;;4.17;nan
34328;BME280;20588;48.840;10.064;2023-02-12T00:21:22;98362.50;;;4.16;nan
34328;BME280;20588;48.840;10.064;2023-02-12T00:23:49;98364.38;;;4.14;nan
34328;BME280;20588;48.840;10.064;2023-02-12T00:26:17;98361.28;;;4.10;nan
34328;BME280;20588;48.840;10.064;2023-02-12T00:28:43;98362.88;;;4.11;nan
34328;BME280;20588;48.840;10.064;2023-02-12T00:31:12;98358.72;;;4.10;nan
34328;BME280;20588;48.840;10.064;2023-02-12T00:33:39;98358.97;;;4.07;nan
34328;BME280;20588;48.840;10.064;2023-02-12T00:36:05;98366.50;;;4.09;nan
34328;BME280;20588;48.840;10.064;2023-02-12T00:38:32;98370.06;;;4.06;nan
34328;BME280;20588;48.840;10.064;2023-02-12T00:40:58;98375.16;;;4.06;nan
34328;BME280;20588;48.840;10.064;2023-02-12T00:43:24;98379.47;;;4.06;nan
34328;BME280;20588;48.840;10.064;2023-02-12T00:45:50;98380.25;;;4.06;nan
34328;BME280;20588;48.840;10.064;2023-02-12T00:48:16;98387.13;;;4.06;nan
34328;BME280;20588;48.840;10.064;2023-02-12T00:50:46;98389.78;;;4.04;nan
34328;BME280;20588;48.840;10.064;2023-02-12T00:53:13;98384.69;;;4.04;nan
34328;BME280;20588;48.840;10.064;2023-02-12T00:55:39;98377.06;;;4.04;nan
34328;BME280;20588;48.840;10.064;2023-02-12T00:58:06;98387.25;;;4.04;nan
34328;BME280;20588;48.840;10.064;2023-02-12T01:00:32;98382.16;;;4.04;nan
34328;BME280;20588;48.840;10.064;2023-02-12T01:02:58;98376.13;;;4.05;nan
34328;BME280;20588;48.840;10.064;2023-02-12T01:05:24;98381.09;;;4.07;nan
34328;BME280;20588;48.840;10.064;2023-02-12T01:07:52;98373.06;;;4.11;nan
34328;BME280;20588;48.840;10.064;2023-02-12T01:10:19;98375.75;;;4.10;nan
34328;BME280;20588;48.840;10.064;2023-02-12T01:12:46;98381.78;;;4.09;nan
34328;BME280;20588;48.840;10.064;2023-02-12T01:15:13;98372.38;;;4.09;nan
34328;BME280;20588;48.840;10.064;2023-02-12T01:17:39;98377.72;;;4.06;nan
34328;BME280;20588;48.840;10.064;2023-02-12T01:20:06;98389.78;;;4.04;nan
34328;BME280;20588;48.840;10.064;2023-02-12T01:22:36;98386.78;;;3.99;nan
34328;BME280;20588;48.840;10.064;2023-02-12T01:25:04;98387.03;;;3.96;nan
34328;BME280;20588;48.840;10.064;2023-02-12T01:27:31;98387.28;;;3.93;nan
34328;BME280;20588;48.840;10.064;2023-02-12T01:29:57;98374.66;;;3.92;nan
34328;BME280;20588;48.840;10.064;2023-02-12T01:32:23;98382.44;;;3.90;nan
34328;BME280;20588;48.840;10.064;2023-02-12T01:34:49;98381.63;;;3.90;nan
34328;BME280;20588;48.840;10.064;2023-02-12T01:37:15;98379.88;;;3.90;nan
34328;BME280;20588;48.840;10.064;2023-02-12T01:39:41;98380.69;;;3.91;nan
34328;BME280;20588;48.840;10.064;2023-02-12T01:42:12;98382.44;;;3.90;nan
34328;BME280;20588;48.840;10.064;2023-02-12T01:44:44;98380.59;;;3.92;nan
34328;BME280;20588;48.840;10.064;2023-02-12T01:47:16;98387.53;;;3.90;nan
34328;BME280;20588;48.840;10.064;2023-02-12T01:49:44;98377.22;;;3.92;nan
34328;BME280;20588;48.840;10.064;2023-02-12T01:52:26;98379.19;;;3.88;nan
34328;BME280;20588;48.840;10.064;2023-02-12T01:54:54;98380.94;;;3.88;nan
34328;BME280;20588;48.840;10.064;2023-02-12T01:57:22;98379.19;;;3.88;nan
34328;BME280;20588;48.840;10.064;2023-02-12T01:59:51;98385.34;;;3.86;nan
34328;BME280;20588;48.840;10.064;2023-02-12T02:02:18;98376.75;;;3.87;nan
34328;BME280;20588;48.840;10.064;2023-02-12T02:04:47;98380.13;;;3.87;nan
34328;BME280;20588;48.840;10.064;2023-02-12T02:07:15;98377.59;;;3.87;nan
34328;BME280;20588;48.840;10.064;2023-02-12T02:09:41;98375.16;;;3.86;nan
34328;BME280;20588;48.840;10.064;2023-02-12T02:12:08;98376.88;;;3.85;nan
34328;BME280;20588;48.840;10.064;2023-02-12T02:14:55;98370.19;;;3.84;nan
34328;BME280;20588;48.840;10.064;2023-02-12T02:20:41;98369.50;;;3.82;nan
34328;BME280;20588;48.840;10.064;2023-02-12T02:30:59;98360.13;;;3.83;nan
34328;BME280;20588;48.840;10.064;2023-02-12T02:33:40;98360.50;;;3.78;nan
34328;BME280;20588;48.840;10.064;2023-02-12T02:39:41;98357.81;;;3.80;nan
34328;BME280;20588;48.840;10.064;2023-02-12T02:42:24;98355.28;;;3.80;nan
34328;BME280;20588;48.840;10.064;2023-02-12T02:44:54;98351.00;;;3.80;nan
34328;BME280;20588;48.840;10.064;2023-02-12T02:47:33;98338.03;;;3.83;nan
34328;BME280;20588;48.840;10.064;2023-02-12T02:50:05;98347.66;;;3.80;nan
34328;BME280;20588;48.840;10.064;2023-02-12T02:52:49;98348.47;;;3.80;nan
34328;BME280;20588;48.840;10.064;2023-02-12T02:55:19;98346.03;;;3.79;nan
34328;BME280;20588;48.840;10.064;2023-02-12T02:57:53;98352.97;;;3.77;nan
34328;BME280;20588;48.840;10.064;2023-02-12T03:00:42;98351.38;;;3.76;nan
34328;BME280;20588;48.840;10.064;2023-02-12T03:03:28;98348.84;;;3.76;nan
34328;BME280;20588;48.840;10.064;2023-02-12T03:06:01;98347.19;;;3.74;nan
34328;BME280;20588;48.840;10.064;2023-02-12T03:08:51;98348.00;;;3.75;nan
34328;BME280;20588;48.840;10.064;2023-02-12T03:11:26;98344.53;;;3.76;nan
34328;BME280;20588;48.840;10.064;2023-02-12T03:16:28;98347.88;;;3.77;nan
34328;BME280;20588;48.840;10.064;2023-02-12T03:22:03;98356.59;;;3.74;nan
34328;BME280;20588;48.840;10.064;2023-02-12T03:27:38;98359.91;;;3.74;nan
34328;BME280;20588;48.840;10.064;2023-02-12T03:30:08;98372.66;;;3.74;nan
34328;BME280;20588;48.840;10.064;2023-02-12T03:32:56;98362.72;;;3.71;nan
34328;BME280;20588;48.840;10.064;2023-02-12T03:35:24;98366.88;;;3.72;nan
34328;BME280;20588;48.840;10.064;2023-02-12T03:41:00;98367.00;;;3.71;nan
34328;BME280;20588;48.840;10.064;2023-02-12T03:46:10;98376.25;;;3.72;nan
34328;BME280;20588;48.840;10.064;2023-02-12T03:48:54;98377.06;;;3.72;nan
34328;BME280;20588;48.840;10.064;2023-02-12T03:53:59;98381.22;;;3.73;nan
34328;BME280;20588;48.840;10.064;2023-02-12T03:56:48;98386.31;;;3.73;nan
34328;BME280;20588;48.840;10.064;2023-02-12T03:59:18;98385.50;;;3.73;nan
34328;BME280;20588;48.840;10.064;2023-02-12T04:01:45;98378.81;;;3.72;nan
34328;BME280;20588;48.840;10.064;2023-02-12T04:04:13;98382.94;;;3.73;nan
34328;BME280;20588;48.840;10.064;2023-02-12T04:06:39;98387.25;;;3.72;nan
34328;BME280;20588;48.840;10.064;2023-02-12T04:09:09;98388.97;;;3.72;nan
34328;BME280;20588;48.840;10.064;2023-02-12T04:23:26;98393.25;;;3.71;nan
34328;BME280;20588;48.840;10.064;2023-02-12T04:29:23;98402.06;;;3.67;nan
34328;BME280;20588;48.840;10.064;2023-02-12T04:31:57;98402.06;;;3.67;nan
34328;BME280;20588;48.840;10.064;2023-02-12T04:34:28;98405.44;;;3.68;nan
34328;BME280;20588;48.840;10.064;2023-02-12T04:37:03;98408.75;;;3.68;nan
34328;BME280;20588;48.840;10.064;2023-02-12T04:39:33;98407.03;;;3.69;nan
34328;BME280;20588;48.840;10.064;2023-02-12T04:42:01;98405.31;;;3.69;nan
34328;BME280;20588;48.840;10.064;2023-02-12T04:44:31;98404.38;;;3.70;nan
34328;BME280;20588;48.840;10.064;2023-02-12T04:46:58;98397.56;;;3.71;nan
34328;BME280;20588;48.840;10.064;2023-02-12T04:49:24;98400.09;;;3.71;nan
34328;BME280;20588;48.840;10.064;2023-02-12T04:51:51;98401.81;;;3.70;nan
34328;BME280;20588;48.840;10.064;2023-02-12T04:54:18;98402.06;;;3.67;nan
34328;BME280;20588;48.840;10.064;2023-02-12T04:56:45;98407.16;;;3.67;nan
34328;BME280;20588;48.840;10.064;2023-02-12T04:59:12;98397.09;;;3.66;nan
34328;BME280;20588;48.840;10.064;2023-02-12T05:01:39;98394.56;;;3.66;nan
34328;BME280;20588;48.840;10.064;2023-02-12T05:04:06;98392.91;;;3.65;nan
34328;BME280;20588;48.840;10.064;2023-02-12T05:06:36;98398.81;;;3.65;nan
34328;BME280;20588;48.840;10.064;2023-02-12T05:09:04;98397.22;;;3.64;nan
34328;BME280;20588;48.840;10.064;2023-02-12T05:11:30;98400.56;;;3.65;nan
34328;BME280;20588;48.840;10.064;2023-02-12T05:13:56;98390.50;;;3.63;nan
34328;BME280;20588;48.840;10.064;2023-02-12T05:16:22;98387.28;;;3.61;nan
34328;BME280;20588;48.840;10.064;2023-02-12T05:18:48;98394.56;;;3.66;nan
34328;BME280;20588;48.840;10.064;2023-02-12T05:21:14;98392.91;;;3.65;nan
34328;BME280;20588;48.840;10.064;2023-02-12T05:23:41;98397.34;;;3.63;nan
34328;BME280;20588;48.840;10.064;2023-02-12T05:26:16;98403.47;;;3.60;nan
34328;BME280;20588;48.840;10.064;2023-02-12T05:28:42;98397.69;;;3.58;nan
34328;BME280;20588;48.840;10.064;2023-02-12T05:31:13;98396.75;;;3.59;nan
34328;BME280;20588;48.840;10.064;2023-02-12T05:33:44;98401.84;;;3.59;nan
34328;BME280;20588;48.840;10.064;2023-02-12T05:36:14;98403.34;;;3.62;nan
34328;BME280;20588;48.840;10.064;2023-02-12T05:38:41;98406.34;;;3.67;nan
34328;BME280;20588;48.840;10.064;2023-02-12T05:41:10;98404.97;;;3.63;nan
34328;BME280;20588;48.840;10.064;2023-02-12T05:43:37;98406.00;;;3.60;nan
34328;BME280;20588;48.840;10.064;2023-02-12T05:46:05;98406.94;;;3.59;nan
34328;BME280;20588;48.840;10.064;2023-02-12T05:48:32;98407.75;;;3.60;nan
34328;BME280;20588;48.840;10.064;2023-02-12T05:51:03;98408.53;;;3.60;nan
34328;BME280;20588;48.840;10.064;2023-02-12T05:53:30;98416.06;;;3.62;nan
34328;BME280;20588;48.840;10.064;2023-02-12T05:56:09;98416.75;;;3.64;nan
34328;BME280;20588;48.840;10.064;2023-02-12T05:58:36;98408.31;;;3.63;nan
34328;BME280;20588;48.840;10.064;2023-02-12T06:01:07;98405.88;;;3.62;nan
34328;BME280;20588;48.840;10.064;2023-02-12T06:03:33;98411.91;;;3.61;nan
34328;BME280;20588;48.840;10.064;2023-02-12T06:05:59;98401.97;;;3.58;nan
34328;BME280;20588;48.840;10.064;2023-02-12T06:08:25;98408.66;;;3.59;nan
34328;BME280;20588;48.840;10.064;2023-02-12T06:10:51;98399.44;;;3.58;nan
34328;BME280;20588;48.840;10.064;2023-02-12T06:13:17;98410.53;;;3.57;nan
34328;BME280;20588;48.840;10.064;2023-02-12T06:15:43;98408.66;;;3.59;nan
34328;BME280;20588;48.840;10.064;2023-02-12T06:18:09;98415.63;;;3.57;nan
34328;BME280;20588;48.840;10.064;2023-02-12T06:20:38;98412.25;;;3.56;nan
34328;BME280;20588;48.840;10.064;2023-02-12T06:23:04;98413.31;;;3.54;nan
34328;BME280;20588;48.840;10.064;2023-02-12T06:25:30;98410.78;;;3.54;nan
34328;BME280;20588;48.840;10.064;2023-02-12T06:27:56;98417.47;;;3.55;nan
34328;BME280;20588;48.840;10.064;2023-02-12T06:30:22;98411.56;;;3.54;nan
34328;BME280;20588;48.840;10.064;2023-02-12T06:32:49;98414.69;;;3.58;nan
34328;BME280;20588;48.840;10.064;2023-02-12T06:35:15;98413.22;;;3.55;nan
34328;BME280;20588;48.840;10.064;2023-02-12T06:37:41;98422.56;;;3.55;nan
34328;BME280;20588;48.840;10.064;2023-02-12T06:40:08;98415.88;;;3.54;nan
34328;BME280;20588;48.840;10.064;2023-02-12T06:42:34;98427.53;;;3.56;nan
34328;BME280;20588;48.840;10.064;2023-02-12T06:45:00;98423.50;;;3.54;nan
34328;BME280;20588;48.840;10.064;2023-02-12T06:47:26;98424.88;;;3.58;nan
34328;BME280;20588;48.840;10.064;2023-02-12T06:49:52;98418.19;;;3.57;nan
34328;BME280;20588;48.840;10.064;2023-02-12T06:52:18;98419.91;;;3.56;nan
34328;BME280;20588;48.840;10.064;2023-02-12T06:54:47;98428.00;;;3.61;nan
34328;BME280;20588;48.840;10.064;2023-02-12T06:57:13;98434.09;;;3.59;nan
34328;BME280;20588;48.840;10.064;2023-02-12T06:59:39;98427.41;;;3.58;nan
34328;BME280;20588;48.840;10.064;2023-02-12T07:02:05;98432.97;;;3.63;nan
34328;BME280;20588;48.840;10.064;2023-02-12T07:04:31;98429.47;;;3.64;nan
34328;BME280;20588;48.840;10.064;2023-02-12T07:06:57;98432.03;;;3.64;nan
34328;BME280;20588;48.840;10.064;2023-02-12T07:09:23;98433.19;;;3.71;nan
34328;BME280;20588;48.840;10.064;2023-02-12T07:11:49;98426.91;;;3.75;nan
34328;BME280;20588;48.840;10.064;2023-02-12T07:14:16;98429.44;;;3.86;nan
34328;BME280;20588;48.840;10.064;2023-02-12T07:16:42;98436.97;;;3.88;nan
34328;BME280;20588;48.840;10.064;2023-02-12T07:19:12;98434.28;;;3.89;nan
34328;BME280;20588;48.840;10.064;2023-02-12T07:21:38;98423.88;;;3.92;nan
34328;BME280;20588;48.840;10.064;2023-02-12T07:24:04;98427.66;;;3.98;nan
34328;BME280;20588;48.840;10.064;2023-02-12T07:26:30;98428.34;;;4.00;nan
34328;BME280;20588;48.840;10.064;2023-02-12T07:28:57;98429.22;;;4.10;nan
34328;BME280;20588;48.840;10.064;2023-02-12T07:31:23;98435.19;;;4.20;nan
34328;BME280;20588;48.840;10.064;2023-02-12T07:33:54;98428.44;;;4.30;nan
34328;BME280;20588;48.840;10.064;2023-02-12T07:36:20;98429.81;;;4.34;nan
34328;BME280;20588;48.840;10.064;2023-02-12T07:38:47;98432.69;;;4.40;nan
34328;BME280;20588;48.840;10.064;2023-02-12T07:41:28;98427.66;;;4.50;nan
34328;BME280;20588;48.840;10.064;2023-02-12T07:43:58;98432.38;;;4.54;nan
34328;BME280;20588;48.840;10.064;2023-02-12T07:46:30;98438.44;;;4.63;nan
34328;BME280;20588;48.840;10.064;2023-02-12T07:49:01;98437.94;;;4.69;nan
34328;BME280;20588;48.840;10.064;2023-02-12T07:51:29;98446.81;;;4.74;nan
34328;BME280;20588;48.840;10.064;2023-02-12T07:53:55;98441.09;;;4.82;nan
34328;BME280;20588;48.840;10.064;2023-02-12T07:56:23;98435.63;;;4.86;nan
34328;BME280;20588;48.840;10.064;2023-02-12T07:58:51;98434.97;;;4.94;nan
34328;BME280;20588;48.840;10.064;2023-02-12T08:01:23;98439.31;;;5.03;nan
34328;BME280;20588;48.840;10.064;2023-02-12T08:03:51;98435.22;;;5.11;nan
34328;BME280;20588;48.840;10.064;2023-02-12T08:06:20;98438.72;;;5.20;nan
34328;BME280;20588;48.840;10.064;2023-02-12T08:08:51;98437.44;;;5.25;nan
34328;BME280;20588;48.840;10.064;2023-02-12T08:11:18;98446.03;;;5.34;nan
34328;BME280;20588;48.840;10.064;2023-02-12T08:13:44;98442.16;;;5.39;nan
34328;BME280;20588;48.840;10.064;2023-02-12T08:16:16;98449.59;;;5.52;nan
34328;BME280;20588;48.840;10.064;2023-02-12T08:18:43;98444.13;;;5.66;nan
34328;BME280;20588;48.840;10.064;2023-02-12T08:21:23;98440.50;;;5.78;nan
34328;BME280;20588;48.840;10.064;2023-02-12T08:23:50;98439.88;;;5.86;nan
34328;BME280;20588;48.840;10.064;2023-02-12T08:26:20;98440.69;;;5.96;nan
34328;BME280;20588;48.840;10.064;2023-02-12T08:28:51;98448.91;;;6.09;nan
34328;BME280;20588;48.840;10.064;2023-02-12T08:31:28;98446.22;;;6.20;nan
34328;BME280;20588;48.840;10.064;2023-02-12T08:33:55;98446.75;;;6.33;nan
34328;BME280;20588;48.840;10.064;2023-02-12T08:36:30;98448.50;;;6.42;nan
34328;BME280;20588;48.840;10.064;2023-02-12T08:38:59;98448.06;;;6.56;nan
34328;BME280;20588;48.840;10.064;2023-02-12T08:41:27;98444.56;;;6.66;nan
34328;BME280;20588;48.840;10.064;2023-02-12T08:43:56;98451.00;;;6.70;nan
34328;BME280;20588;48.840;10.064;2023-02-12T08:46:25;98445.59;;;6.83;nan
34328;BME280;20588;48.840;10.064;2023-02-12T08:48:54;98448.53;;;6.97;nan
34328;BME280;20588;48.840;10.064;2023-02-12T08:51:23;98455.50;;;7.05;nan
34328;BME280;20588;48.840;10.064;2023-02-12T08:53:56;98450.34;;;7.14;nan
34328;BME280;20588;48.840;10.064;2023-02-12T08:56:23;98450.00;;;7.27;nan
34328;BME280;20588;48.840;10.064;2023-02-12T08:58:50;98449.84;;;7.38;nan
34328;BME280;20588;48.840;10.064;2023-02-12T09:01:20;98451.19;;;7.42;nan
34328;BME280;20588;48.840;10.064;2023-02-12T09:03:46;98444.94;;;7.54;nan
34328;BME280;20588;48.840;10.064;2023-02-12T09:06:14;98447.19;;;7.57;nan
34328;BME280;20588;48.840;10.064;2023-02-12T09:08:41;98447.94;;;7.67;nan
34328;BME280;20588;48.840;10.064;2023-02-12T09:11:10;98445.09;;;7.70;nan
34328;BME280;20588;48.840;10.064;2023-02-12T09:13:38;98451.53;;;7.74;nan
34328;BME280;20588;48.840;10.064;2023-02-12T09:16:05;98446.22;;;7.85;nan
34328;BME280;20588;48.840;10.064;2023-02-12T09:18:32;98441.53;;;7.98;nan
34328;BME280;20588;48.840;10.064;2023-02-12T09:21:09;98438.97;;;7.98;nan
34328;BME280;20588;48.840;10.064;2023-02-12T09:23:36;98438.66;;;7.84;nan
34328;BME280;20588;48.840;10.064;2023-02-12T09:26:05;98446.94;;;7.78;nan
34328;BME280;20588;48.840;10.064;2023-02-12T09:28:31;98445.41;;;7.85;nan
34328;BME280;20588;48.840;10.064;2023-02-12T09:30:58;98446.50;;;8.00;nan
34328;BME280;20588;48.840;10.064;2023-02-12T09:33:24;98456.41;;;7.95;nan
34328;BME280;20588;48.840;10.064;2023-02-12T09:35:50;98445.81;;;8.07;nan
34328;BME280;20588;48.840;10.064;2023-02-12T09:38:16;98438.31;;;8.14;nan
34328;BME280;20588;48.840;10.064;2023-02-12T09:41:08;98440.84;;;8.23;nan
34328;BME280;20588;48.840;10.064;2023-02-12T09:48:59;98441.91;;;8.21;nan
34328;BME280;20588;48.840;10.064;2023-02-12T09:51:28;98439.34;;;8.21;nan
34328;BME280;20588;48.840;10.064;2023-02-12T09:54:05;98444.06;;;8.25;nan
34328;BME280;20588;48.840;10.064;2023-02-12T09:56:37;98451.91;;;8.24;nan
34328;BME280;20588;48.840;10.064;2023-02-12T09:59:06;98437.69;;;8.12;nan
34328;BME280;20588;48.840;10.064;2023-02-12T10:01:32;98449.69;;;8.11;nan
34328;BME280;20588;48.840;10.064;2023-02-12T10:03:59;98449.06;;;8.00;nan
34328;BME280;20588;48.840;10.064;2023-02-12T10:06:28;98446.66;;;7.98;nan
34328;BME280;20588;48.840;10.064;2023-02-12T10:09:24;98448.00;;;8.02;nan
34328;BME280;20588;48.840;10.064;2023-02-12T10:13:06;98452.97;;;8.21;nan
34328;BME280;20588;48.840;10.064;2023-02-12T10:15:16;98458.34;;;8.28;nan
34328;BME280;20588;48.840;10.064;2023-02-12T10:17:58;98450.63;;;8.10;nan
34328;BME280;20588;48.840;10.064;2023-02-12T10:20:49;98458.63;;;8.07;nan
34328;BME280;20588;48.840;10.064;2023-02-12T10:28:45;98455.97;;;7.99;nan
34328;BME280;20588;48.840;10.064;2023-02-12T10:31:31;98459.47;;;7.98;nan
34328;BME280;20588;48.840;10.064;2023-02-12T10:33:57;98464.25;;;7.93;nan
34328;BME280;20588;48.840;10.064;2023-02-12T10:39:15;98458.38;;;8.18;nan
34328;BME280;20588;48.840;10.064;2023-02-12T10:44:31;98454.00;;;7.93;nan
34328;BME280;20588;48.840;10.064;2023-02-12T10:46:57;98447.66;;;7.88;nan
34328;BME280;20588;48.840;10.064;2023-02-12T10:49:23;98452.59;;;7.99;nan
34328;BME280;20588;48.840;10.064;2023-02-12T10:52:32;98443.41;;;8.23;nan
34328;BME280;20588;48.840;10.064;2023-02-12T10:55:00;98445.47;;;8.37;nan
34328;BME280;20588;48.840;10.064;2023-02-12T10:57:30;98452.19;;;8.38;nan
34328;BME280;20588;48.840;10.064;2023-02-12T11:05:40;98446.53;;;8.35;nan
34328;BME280;20588;48.840;10.064;2023-02-12T11:08:11;98444.06;;;8.25;nan
34328;BME280;20588;48.840;10.064;2023-02-12T11:10:51;98439.03;;;8.59;nan
34328;BME280;20588;48.840;10.064;2023-02-12T11:13:27;98444.63;;;8.37;nan
34328;BME280;20588;48.840;10.064;2023-02-12T11:15:55;98439.97;;;8.32;nan
34328;BME280;20588;48.840;10.064;2023-02-12T11:18:26;98435.78;;;8.31;nan
34328;BME280;20588;48.840;10.064;2023-02-12T11:20:56;98440.09;;;8.31;nan
34328;BME280;20588;48.840;10.064;2023-02-12T11:23:48;98433.03;;;8.15;nan
34328;BME280;20588;48.840;10.064;2023-02-12T11:28:53;98427.31;;;8.56;nan
34328;BME280;20588;48.840;10.064;2023-02-12T11:31:24;98431.66;;;8.38;nan
34328;BME280;20588;48.840;10.064;2023-02-12T11:34:16;98428.44;;;8.54;nan
34328;BME280;20588;48.840;10.064;2023-02-12T11:36:50;98426.16;;;8.33;nan
34328;BME280;20588;48.840;10.064;2023-02-12T11:39:23;98426.84;;;8.35;nan
34328;BME280;20588;48.840;10.064;2023-02-12T11:42:05;98425.56;;;8.39;nan
34328;BME280;20588;48.840;10.064;2023-02-12T11:44:41;98425.13;;;8.44;nan
34328;BME280;20588;48.840;10.064;2023-02-12T11:47:28;98424.56;;;8.32;nan
34328;BME280;20588;48.840;10.064;2023-02-12T11:52:49;98425.69;;;8.30;nan
34328;BME280;20588;48.840;10.064;2023-02-12T11:55:28;98427.19;;;8.40;nan
34328;BME280;20588;48.840;10.064;2023-02-12T11:58:24;98434.75;;;8.24;nan
34328;BME280;20588;48.840;10.064;2023-02-12T12:06:05;98422.84;;;8.58;nan
34328;BME280;20588;48.840;10.064;2023-02-12T12:08:46;98425.13;;;8.61;nan
34328;BME280;20588;48.840;10.064;2023-02-12T12:11:18;98423.84;;;8.65;nan
34328;BME280;20588;48.840;10.064;2023-02-12T12:14:00;98421.03;;;8.51;nan
34328;BME280;20588;48.840;10.064;2023-02-12T12:16:38;98419.22;;;8.69;nan
34328;BME280;20588;48.840;10.064;2023-02-12T12:19:46;98427.69;;;8.61;nan
34328;BME280;20588;48.840;10.064;2023-02-12T12:25:15;98422.50;;;8.79;nan
34328;BME280;20588;48.840;10.064;2023-02-12T12:27:56;98426.16;;;8.51;nan
34328;BME280;20588;48.840;10.064;2023-02-12T12:31:11;98417.75;;;8.66;nan
34328;BME280;20588;48.840;10.064;2023-02-12T12:36:27;98420.69;;;8.71;nan
34328;BME280;20588;48.840;10.064;2023-02-12T12:42:07;98414.84;;;8.61;nan
34328;BME280;20588;48.840;10.064;2023-02-12T12:58:56;98390.88;;;9.12;nan
34328;BME280;20588;48.840;10.064;2023-02-12T13:13:33;98390.00;;;8.87;nan
34328;BME280;20588;48.840;10.064;2023-02-12T13:16:12;98391.78;;;9.37;nan
34328;BME280;20588;48.840;10.064;2023-02-12T13:19:00;98398.59;;;9.54;nan
34328;BME280;20588;48.840;10.064;2023-02-12T13:24:26;98394.09;;;9.48;nan
34328;BME280;20588;48.840;10.064;2023-02-12T13:27:01;98385.44;;;9.07;nan
34328;BME280;20588;48.840;10.064;2023-02-12T13:32:40;98383.44;;;8.93;nan
34328;BME280;20588;48.840;10.064;2023-02-12T13:35:15;98383.13;;;9.38;nan
34328;BME280;20588;48.840;10.064;2023-02-12T13:37:46;98383.44;;;9.35;nan
34328;BME280;20588;48.840;10.064;2023-02-12T13:40:17;98373.75;;;9.21;nan
34328;BME280;20588;48.840;10.064;2023-02-12T13:45:26;98376.81;;;9.74;nan
34328;BME280;20588;48.840;10.064;2023-02-12T13:56:50;98357.88;;;10.15;nan
34328;BME280;20588;48.840;10.064;2023-02-12T14:08:24;98359.28;;;10.57;nan
34328;BME280;20588;48.840;10.064;2023-02-12T14:10:37;98352.56;;;10.16;nan
34328;BME280;20588;48.840;10.064;2023-02-12T14:15:41;98359.00;;;10.44;nan
34328;BME280;20588;48.840;10.064;2023-02-12T14:18:31;98348.72;;;10.28;nan
34328;BME280;20588;48.840;10.064;2023-02-12T14:23:40;98350.31;;;10.13;nan
34328;BME280;20588;48.840;10.064;2023-02-12T14:26:18;98347.91;;;10.36;nan
34328;BME280;20588;48.840;10.064;2023-02-12T14:29:01;98354.66;;;10.37;nan
34328;BME280;20588;48.840;10.064;2023-02-12T14:31:34;98349.19;;;10.32;nan
34328;BME280;20588;48.840;10.064;2023-02-12T14:41:46;98333.41;;;10.03;nan
34328;BME280;20588;48.840;10.064;2023-02-12T14:49:53;98324.91;;;10.26;nan
34328;BME280;20588;48.840;10.064;2023-02-12T14:52:30;98323.28;;;10.25;nan
34328;BME280;20588;48.840;10.064;2023-02-12T14:55:03;98323.63;;;10.22;nan
34328;BME280;20588;48.840;10.064;2023-02-12T14:57:32;98321.53;;;10.02;nan
34328;BME280;20588;48.840;10.064;2023-02-12T15:00:22;98328.75;;;9.82;nan
34328;BME280;20588;48.840;10.064;2023-02-12T15:02:54;98326.34;;;9.81;nan
34328;BME280;20588;48.840;10.064;2023-02-12T15:05:33;98327.97;;;9.90;nan
34328;BME280;20588;48.840;10.064;2023-02-12T15:08:14;98325.38;;;9.82;nan
34328;BME280;20588;48.840;10.064;2023-02-12T15:10:49;98319.44;;;9.81;nan
34328;BME280;20588;48.840;10.064;2023-02-12T15:19:00;98317.03;;;9.88;nan
34328;BME280;20588;48.840;10.064;2023-02-12T15:21:34;98321.03;;;9.66;nan
34328;BME280;20588;48.840;10.064;2023-02-12T15:26:29;98318.91;;;9.46;nan
34328;BME280;20588;48.840;10.064;2023-02-12T15:28:57;98320.81;;;9.28;nan
34328;BME280;20588;48.840;10.064;2023-02-12T15:31:28;98321.16;;;9.33;nan
34328;BME280;20588;48.840;10.064;2023-02-12T15:33:57;98315.00;;;9.18;nan
34328;BME280;20588;48.840;10.064;2023-02-12T15:36:26;98322.06;;;9.15;nan
34328;BME280;20588;48.840;10.064;2023-02-12T15:38:58;98318.97;;;9.12;nan
34328;BME280;20588;48.840;10.064;2023-02-12T15:41:38;98319.91;;;9.03;nan
34328;BME280;20588;48.840;10.064;2023-02-12T15:44:27;98321.00;;;8.92;nan
34328;BME280;20588;48.840;10.064;2023-02-12T15:47:13;98322.75;;;8.84;nan
34328;BME280;20588;48.840;10.064;2023-02-12T15:49:40;98318.13;;;8.87;nan
34328;BME280;20588;48.840;10.064;2023-02-12T15:52:08;98316.59;;;8.69;nan
34328;BME280;20588;48.840;10.064;2023-02-12T15:54:35;98310.25;;;8.55;nan
34328;BME280;20588;48.840;10.064;2023-02-12T15:57:02;98316.31;;;8.46;nan
34328;BME280;20588;48.840;10.064;2023-02-12T15:59:34;98320.22;;;8.33;nan
34328;BME280;20588;48.840;10.064;2023-02-12T16:02:02;98320.56;;;8.38;nan
34328;BME280;20588;48.840;10.064;2023-02-12T16:04:32;98317.09;;;8.47;nan
34328;BME280;20588;48.840;10.064;2023-02-12T16:06:59;98310.63;;;8.17;nan
34328;BME280;20588;48.840;10.064;2023-02-12T16:09:31;98315.84;;;8.08;nan
34328;BME280;20588;48.840;10.064;2023-02-12T16:12:03;98307.31;;;7.99;nan
34328;BME280;20588;48.840;10.064;2023-02-12T16:14:40;98308.78;;;7.84;nan
34328;BME280;20588;48.840;10.064;2023-02-12T16:22:40;98306.63;;;7.54;nan
34328;BME280;20588;48.840;10.064;2023-02-12T16:28:01;98310.34;;;7.42;nan
34328;BME280;20588;48.840;10.064;2023-02-12T16:30:35;98315.66;;;7.31;nan
34328;BME280;20588;48.840;10.064;2023-02-12T16:36:06;98313.06;;;7.13;nan
34328;BME280;20588;48.840;10.064;2023-02-12T16:38:47;98312.56;;;7.10;nan
34328;BME280;20588;48.840;10.064;2023-02-12T16:46:51;98317.19;;;6.97;nan
34328;BME280;20588;48.840;10.064;2023-02-12T16:49:21;98318.19;;;6.86;nan